createdAt,value
2023-09-06T00:02:52.963Z,12.26
2023-09-06T00:07:57.047Z,12.22
2023-09-06T00:13:01.424Z,12.14
2023-09-06T00:18:08.488Z,12.09
2023-09-06T00:23:14.706Z,11.98
2023-09-06T00:28:20.668Z,12.01
2023-09-06T00:33:28.450Z,11.96
2023-09-06T00:38:33.635Z,11.93
2023-09-06T00:43:37.803Z,11.88
2023-09-06T00:48:43.245Z,11.86
2023-09-06T00:53:49.570Z,11.83
2023-09-06T00:58:55.173Z,11.78
2023-09-06T01:04:02.182Z,11.75
2023-09-06T01:09:08.099Z,11.69
2023-09-06T01:14:12.629Z,11.67
2023-09-06T01:19:19.549Z,11.60
2023-09-06T01:24:29.435Z,11.60
2023-09-06T01:29:33.742Z,11.57
2023-09-06T01:34:37.699Z,11.51
2023-09-06T01:39:43.051Z,11.43
2023-09-06T01:44:47.020Z,11.39
2023-09-06T01:49:51.699Z,11.34
2023-09-06T01:54:57.177Z,11.32
2023-09-06T02:00:01.894Z,11.30
2023-09-06T02:05:18.062Z,11.22
2023-09-06T02:10:23.345Z,11.18
2023-09-06T02:15:31.328Z,11.15
2023-09-06T02:20:37.088Z,11.09
2023-09-06T02:25:46.591Z,11.08
2023-09-06T02:30:50.778Z,11.08
2023-09-06T02:35:54.905Z,11.11
2023-09-06T02:41:00.307Z,11.13
2023-09-06T02:46:04.883Z,11.17
2023-09-06T02:51:11.512Z,11.12
2023-09-06T02:56:16.968Z,11.08
2023-09-06T03:01:23.777Z,11.03
2023-09-06T03:06:34.321Z,10.95
2023-09-06T03:11:43.239Z,10.88
2023-09-06T03:16:49.224Z,10.85
2023-09-06T03:21:53.728Z,10.77
2023-09-06T03:26:59.434Z,10.72
2023-09-06T03:32:09.309Z,10.68
2023-09-06T03:37:19.736Z,10.66
2023-09-06T03:42:26.613Z,10.63
2023-09-06T03:47:31.007Z,10.57
2023-09-06T03:52:35.486Z,10.55
2023-09-06T03:57:41.117Z,10.56
2023-09-06T04:02:46.989Z,10.55
2023-09-06T04:07:53.163Z,10.50
2023-09-06T04:12:59.649Z,10.56
2023-09-06T04:18:05.828Z,10.57
2023-09-06T04:23:14.262Z,10.56
2023-09-06T04:28:24.213Z,10.60
2023-09-06T04:33:32.011Z,10.64
2023-09-06T04:38:45.117Z,10.69
2023-09-06T04:43:51.403Z,10.75
2023-09-06T04:48:56.617Z,10.82
2023-09-06T04:54:01.829Z,10.91
2023-09-06T04:59:10.272Z,11.05
2023-09-06T05:04:14.341Z,11.19
2023-09-06T05:09:20.568Z,11.34
2023-09-06T05:14:26.204Z,11.52
2023-09-06T05:19:30.321Z,11.66
2023-09-06T05:24:36.968Z,11.87
2023-09-06T05:29:42.585Z,12.04
2023-09-06T05:34:46.466Z,12.22
2023-09-06T05:39:50.653Z,12.41
2023-09-06T05:44:57.456Z,12.62
2023-09-06T05:50:01.784Z,12.81
2023-09-06T05:55:09.306Z,13.02
2023-09-06T06:00:17.487Z,13.22
2023-09-06T06:05:28.108Z,13.44
2023-09-06T06:10:35.881Z,13.68
2023-09-06T06:15:41.781Z,13.91
2023-09-06T06:20:45.743Z,14.12
2023-09-06T06:25:49.982Z,14.38
2023-09-06T06:30:55.251Z,14.60
2023-09-06T06:35:59.188Z,14.87
2023-09-06T06:41:03.454Z,15.16
2023-09-06T06:46:26.003Z,15.43
2023-09-06T06:51:32.923Z,15.65
2023-09-06T06:56:38.444Z,15.89
2023-09-06T07:01:43.725Z,16.10
2023-09-06T07:06:47.793Z,16.31
2023-09-06T07:11:52.131Z,16.51
2023-09-06T07:16:57.910Z,16.75
2023-09-06T07:22:02.347Z,16.98
2023-09-06T07:27:06.505Z,17.19
2023-09-06T07:32:12.100Z,17.43
2023-09-06T07:37:15.962Z,17.81
2023-09-06T07:42:20.077Z,17.96
2023-09-06T07:47:25.586Z,18.14
2023-09-06T07:52:29.776Z,18.33
2023-09-06T07:57:34.444Z,18.57
2023-09-06T08:02:40.141Z,18.84
2023-09-06T08:07:44.205Z,19.00
2023-09-06T08:12:48.701Z,19.24
2023-09-06T08:17:54.427Z,19.32
2023-09-06T08:22:58.653Z,19.56
2023-09-06T08:28:02.896Z,19.81
2023-09-06T08:33:08.611Z,20.04
2023-09-06T08:38:14.223Z,20.15
2023-09-06T08:43:20.647Z,20.25
2023-09-06T08:48:26.303Z,20.44
2023-09-06T08:53:30.838Z,20.62
2023-09-06T08:58:35.538Z,20.80
2023-09-06T09:03:40.981Z,20.95
2023-09-06T09:08:45.338Z,21.08
2023-09-06T09:13:49.930Z,21.21
2023-09-06T09:18:56.694Z,21.41
2023-09-06T09:24:00.855Z,21.54
2023-09-06T09:29:05.745Z,21.67
2023-09-06T09:34:11.122Z,21.81
2023-09-06T09:39:15.285Z,21.97
2023-09-06T09:44:20.628Z,22.08
2023-09-06T09:49:26.810Z,22.25
2023-09-06T09:54:34.709Z,22.26
2023-09-06T09:59:41.990Z,22.35
2023-09-06T10:04:49.232Z,22.59
2023-09-06T10:09:54.433Z,22.67
2023-09-06T10:14:59.353Z,22.78
2023-09-06T10:20:05.861Z,22.94
2023-09-06T10:25:11.550Z,23.10
2023-09-06T10:30:18.997Z,23.30
2023-09-06T10:35:27.060Z,23.36
2023-09-06T10:41:07.647Z,23.41
2023-09-06T10:46:29.112Z,23.55
2023-09-06T10:51:34.747Z,23.55
2023-09-06T10:56:38.836Z,23.85
2023-09-06T11:02:03.614Z,24.13
2023-09-06T11:07:11.979Z,24.13
2023-09-06T11:12:16.214Z,24.10
2023-09-06T11:17:23.934Z,24.13
2023-09-06T11:22:29.385Z,24.49
2023-09-06T11:27:38.920Z,24.67
2023-09-06T11:32:43.959Z,25.07
2023-09-06T11:37:52.127Z,25.13
2023-09-06T11:42:58.946Z,25.18
2023-09-06T11:48:07.161Z,25.51
2023-09-06T11:53:12.635Z,25.49
2023-09-06T11:58:18.081Z,26.07
2023-09-06T12:03:30.455Z,26.05
2023-09-06T12:08:36.116Z,26.13
2023-09-06T12:13:40.345Z,25.88
2023-09-06T12:18:44.657Z,26.00
2023-09-06T12:23:50.331Z,25.93
2023-09-06T12:28:54.573Z,26.08
2023-09-06T12:33:58.617Z,26.15
2023-09-06T12:39:07.569Z,26.37
2023-09-06T12:44:11.891Z,26.97
2023-09-06T12:49:15.911Z,26.99
2023-09-06T12:54:21.806Z,27.21
2023-09-06T12:59:26.290Z,27.11
2023-09-06T13:04:31.114Z,26.72
2023-09-06T13:09:36.523Z,26.96
2023-09-06T13:14:41.527Z,27.60
2023-09-06T13:19:46.522Z,27.67
2023-09-06T13:24:52.712Z,27.98
2023-09-06T13:29:57.643Z,27.98
2023-09-06T13:35:02.026Z,28.04
2023-09-06T13:40:09.569Z,28.26
2023-09-06T13:45:14.069Z,28.27
2023-09-06T13:50:18.295Z,27.97
2023-09-06T13:55:23.654Z,28.21
2023-09-06T14:00:28.000Z,28.23
2023-09-06T14:05:34.364Z,27.83
2023-09-06T14:10:39.714Z,27.15
2023-09-06T14:15:43.670Z,27.11
2023-09-06T14:20:47.708Z,27.10
2023-09-06T14:25:53.083Z,27.12
2023-09-06T14:30:57.187Z,27.15
2023-09-06T14:36:03.050Z,27.05
2023-09-06T14:41:08.708Z,26.98
2023-09-06T14:46:12.963Z,27.04
2023-09-06T14:51:17.027Z,26.76
2023-09-06T14:56:22.258Z,26.42
2023-09-06T15:01:26.321Z,26.22
2023-09-06T15:06:43.536Z,25.93
2023-09-06T15:11:56.667Z,25.63
2023-09-06T15:17:00.875Z,25.28
2023-09-06T15:22:05.049Z,25.03
2023-09-06T15:27:10.357Z,24.60
2023-09-06T15:32:14.321Z,24.27
2023-09-06T15:37:18.388Z,24.10
2023-09-06T15:42:23.998Z,23.93
2023-09-06T15:47:28.686Z,23.68
2023-09-06T15:52:32.927Z,23.58
2023-09-06T15:57:39.084Z,23.36
2023-09-06T16:02:43.834Z,23.21
2023-09-06T16:07:49.150Z,23.13
2023-09-06T16:12:54.533Z,23.03
2023-09-06T16:17:59.044Z,22.84
2023-09-06T16:23:03.421Z,22.66
2023-09-06T16:28:09.272Z,22.48
2023-09-06T16:33:13.693Z,22.37
2023-09-06T16:38:19.986Z,22.12
2023-09-06T16:43:25.532Z,21.90
2023-09-06T16:48:29.662Z,21.58
2023-09-06T16:53:34.510Z,21.38
2023-09-06T16:58:41.527Z,21.10
2023-09-06T17:03:45.791Z,20.73
2023-09-06T17:08:50.322Z,20.40
2023-09-06T17:13:55.564Z,20.14
2023-09-06T17:18:59.910Z,19.84
2023-09-06T17:24:04.436Z,19.51
2023-09-06T17:29:15.467Z,19.34
2023-09-06T17:34:19.660Z,19.09
2023-09-06T17:39:23.801Z,18.75
2023-09-06T17:44:31.161Z,18.54
2023-09-06T17:49:36.014Z,18.34
2023-09-06T17:54:40.122Z,18.21
2023-09-06T17:59:45.524Z,18.06
2023-09-06T18:04:49.527Z,17.91
2023-09-06T18:09:54.075Z,17.68
2023-09-06T18:15:01.954Z,17.55
2023-09-06T18:20:10.653Z,17.41
2023-09-06T18:25:15.053Z,17.28
2023-09-06T18:30:25.781Z,17.17
2023-09-06T18:35:30.054Z,17.13
2023-09-06T18:40:33.991Z,16.99
2023-09-06T18:45:39.784Z,16.90
2023-09-06T18:50:44.179Z,16.84
2023-09-06T18:55:48.460Z,16.79
2023-09-06T19:00:54.152Z,16.76
2023-09-06T19:05:58.175Z,16.60
2023-09-06T19:11:03.421Z,16.46
2023-09-06T19:16:11.124Z,16.32
2023-09-06T19:21:15.295Z,16.21
2023-09-06T19:26:19.951Z,16.21
2023-09-06T19:31:25.942Z,16.16
2023-09-06T19:36:30.088Z,15.99
2023-09-06T19:41:34.142Z,15.91
2023-09-06T19:46:39.479Z,15.83
2023-09-06T19:51:43.727Z,15.75
2023-09-06T19:56:47.790Z,15.70
2023-09-06T20:01:53.345Z,15.56
2023-09-06T20:06:57.429Z,15.45
2023-09-06T20:12:01.949Z,15.31
2023-09-06T20:17:07.275Z,15.18
2023-09-06T20:22:11.436Z,15.07
2023-09-06T20:27:16.044Z,14.99
2023-09-06T20:32:21.480Z,14.90
2023-09-06T20:37:25.726Z,14.76
2023-09-06T20:42:30.013Z,14.75
2023-09-06T20:47:36.712Z,14.74
2023-09-06T20:52:40.637Z,14.71
2023-09-06T20:57:52.245Z,14.64
2023-09-06T21:02:57.576Z,14.60
2023-09-06T21:08:01.906Z,14.51
2023-09-06T21:13:06.373Z,14.45
2023-09-06T21:18:11.826Z,14.34
2023-09-06T21:23:15.768Z,14.26
2023-09-06T21:28:20.180Z,14.18
2023-09-06T21:33:25.598Z,14.14
2023-09-06T21:38:32.225Z,14.10
2023-09-06T21:43:36.433Z,14.07
2023-09-06T21:49:02.344Z,13.99
2023-09-06T21:54:06.602Z,13.93
2023-09-06T21:59:11.575Z,13.85
2023-09-06T22:04:17.203Z,13.78
2023-09-06T22:09:39.741Z,13.75
2023-09-06T22:15:05.931Z,13.68
2023-09-06T22:20:11.909Z,13.66
2023-09-06T22:25:16.330Z,13.62
2023-09-06T22:30:20.602Z,13.58
2023-09-06T22:35:26.256Z,13.51
2023-09-06T22:40:30.131Z,13.45
2023-09-06T22:45:34.075Z,13.39
2023-09-06T22:50:39.610Z,13.30
2023-09-06T22:55:43.703Z,13.23
2023-09-06T23:00:47.833Z,13.17
2023-09-06T23:05:53.281Z,13.14
2023-09-06T23:10:58.455Z,13.08
2023-09-06T23:16:03.239Z,13.05
2023-09-06T23:21:11.852Z,13.02
2023-09-06T23:26:19.885Z,12.98
2023-09-06T23:31:26.664Z,12.94
2023-09-06T23:36:34.409Z,12.92
2023-09-06T23:41:38.459Z,12.89
2023-09-06T23:46:43.668Z,12.86
2023-09-06T23:51:50.738Z,12.85
2023-09-06T23:56:54.732Z,12.83
